Time;durP1;ratioP1;P1;durP2;ratioP2;P2;SDS_P1;SDS_P2;PMS_P1;PMS_P2;Temp;Humidity;BMP_temperature;BMP_pressure;BME280_temperature;BME280_humidity;BME280_pressure;Samples;Min_cycle;Max_cycle;Signal;HPM_P1;HPM_P2
2023/01/25 00:01:19;;;;;;;3.07;2.37;;;;;;;;;;4987665;28;20209;-72
2023/01/25 00:03:47;;;;;;;5.17;2.23;;;;;;;;;;4989073;28;20209;-72
2023/01/25 00:06:14;;;;;;;3.87;2.60;;;;;;;;;;4988520;28;20223;-72
2023/01/25 00:08:41;;;;;;;2.87;2.67;;;;;;;;;;4988174;28;20221;-72
2023/01/25 00:11:08;;;;;;;4.57;3.00;;;;;;;;;;4983628;28;20224;-72
2023/01/25 00:13:36;;;;;;;8.47;2.73;;;;;;;;;;4982597;28;20665;-72
2023/01/25 00:16:03;;;;;;;2.10;1.93;;;;;;;;;;4988035;28;20218;-73
2023/01/25 00:18:30;;;;;;;5.27;2.80;;;;;;;;;;4988122;28;20252;-73
2023/01/25 00:20:59;;;;;;;2.63;2.20;;;;;;;;;;4986974;28;20217;-72
2023/01/25 00:23:26;;;;;;;2.40;2.20;;;;;;;;;;4988398;28;20205;-72
2023/01/25 00:25:57;;;;;;;2.40;2.20;;;;;;;;;;4985797;28;20221;-72
2023/01/25 00:28:24;;;;;;;2.10;1.93;;;;;;;;;;4985004;28;20237;-72
2023/01/25 00:30:51;;;;;;;2.83;2.37;;;;;;;;;;4984842;28;20763;-72
2023/01/25 00:33:33;;;;;;;3.30;2.50;;;;;;;;;;4984752;28;20209;-72
2023/01/25 00:36:02;;;;;;;4.47;2.93;;;;;;;;;;4987730;28;20416;-72
2023/01/25 00:38:30;;;;;;;3.60;3.00;;;;;;;;;;4985805;28;20222;-72
2023/01/25 00:40:58;;;;;;;2.87;2.23;;;;;;;;;;4987287;28;20216;-72
2023/01/25 00:43:25;;;;;;;2.90;2.43;;;;;;;;;;4988316;28;20213;-72
2023/01/25 00:45:52;;;;;;;2.83;2.23;;;;;;;;;;4985769;28;20202;-72
2023/01/25 00:48:19;;;;;;;3.00;2.40;;;;;;;;;;4988170;28;20759;-72
2023/01/25 00:50:46;;;;;;;2.77;2.57;;;;;;;;;;4987438;28;20233;-72
2023/01/25 00:53:14;;;;;;;2.67;2.47;;;;;;;;;;4988201;28;20221;-73
2023/01/25 00:55:41;;;;;;;3.17;2.20;;;;;;;;;;4988417;28;20580;-72
2023/01/25 00:58:08;;;;;;;5.03;2.77;;;;;;;;;;4987214;28;20201;-72
2023/01/25 01:00:35;;;;;;;2.53;2.33;;;;;;;;;;4985312;28;20213;-71
2023/01/25 01:03:02;;;;;;;4.57;2.83;;;;;;;;;;4984637;28;20221;-71
2023/01/25 01:05:29;;;;;;;2.53;2.20;;;;;;;;;;4982843;28;20209;-71
2023/01/25 01:07:57;;;;;;;3.37;2.27;;;;;;;;;;4987397;28;20618;-71
2023/01/25 01:10:25;;;;;;;2.53;2.00;;;;;;;;;;4984510;28;20237;-71
2023/01/25 01:12:52;;;;;;;2.60;2.20;;;;;;;;;;4985945;28;20327;-71
2023/01/25 01:15:19;;;;;;;3.63;2.87;;;;;;;;;;4980972;28;20210;-71
2023/01/25 01:17:46;;;;;;;2.70;2.30;;;;;;;;;;4984843;28;20209;-71
2023/01/25 01:20:13;;;;;;;4.87;2.40;;;;;;;;;;4988016;28;20238;-71
2023/01/25 01:22:40;;;;;;;3.43;2.07;;;;;;;;;;4986670;28;20201;-71
2023/01/25 01:25:08;;;;;;;2.27;2.07;;;;;;;;;;4983777;28;20276;-71
2023/01/25 01:27:36;;;;;;;3.27;2.40;;;;;;;;;;4983852;28;20353;-72
2023/01/25 01:30:03;;;;;;;2.73;2.53;;;;;;;;;;4982268;28;20237;-72
2023/01/25 01:32:30;;;;;;;3.57;2.23;;;;;;;;;;4983793;28;20301;-72
2023/01/25 01:34:57;;;;;;;2.47;2.13;;;;;;;;;;4986956;28;20252;-72
2023/01/25 01:37:24;;;;;;;3.90;2.80;;;;;;;;;;4984520;28;20221;-71
2023/01/25 01:39:52;;;;;;;2.10;1.93;;;;;;;;;;4985977;28;20213;-71
2023/01/25 01:42:19;;;;;;;2.53;2.33;;;;;;;;;;4982815;28;20213;-72
2023/01/25 01:44:49;;;;;;;2.23;2.13;;;;;;;;;;4986940;28;20730;-72
2023/01/25 01:47:18;;;;;;;4.70;2.67;;;;;;;;;;4988460;28;20220;-72
2023/01/25 01:49:50;;;;;;;3.83;2.27;;;;;;;;;;4987897;28;20236;-71
2023/01/25 01:52:18;;;;;;;3.47;2.23;;;;;;;;;;4981185;28;20217;-72
2023/01/25 01:54:48;;;;;;;2.93;2.60;;;;;;;;;;4977479;28;20218;-72
2023/01/25 01:57:17;;;;;;;1.47;1.37;;;;;;;;;;4983381;28;20261;-71
2023/01/25 01:59:46;;;;;;;3.30;2.63;;;;;;;;;;4988025;28;20206;-71
2023/01/25 02:02:15;;;;;;;3.40;2.43;;;;;;;;;;4982707;28;20877;-71
2023/01/25 02:04:42;;;;;;;2.57;2.37;;;;;;;;;;4987548;28;20217;-71
2023/01/25 02:07:12;;;;;;;5.33;2.83;;;;;;;;;;4988879;28;20202;-71
2023/01/25 02:09:39;;;;;;;2.17;2.07;;;;;;;;;;4987188;28;20261;-71
2023/01/25 02:12:08;;;;;;;3.77;3.07;;;;;;;;;;4985409;28;20210;-72
2023/01/25 02:14:35;;;;;;;2.13;1.80;;;;;;;;;;4987002;28;20945;-71
2023/01/25 02:17:02;;;;;;;2.93;2.53;;;;;;;;;;4981950;28;20285;-71
2023/01/25 02:19:38;;;;;;;2.60;2.20;;;;;;;;;;4976905;28;20256;-71
2023/01/25 02:22:09;;;;;;;2.63;2.43;;;;;;;;;;4976352;28;20215;-71
2023/01/25 02:24:37;;;;;;;4.17;2.10;;;;;;;;;;4981949;28;20205;-70
2023/01/25 02:27:05;;;;;;;3.80;2.63;;;;;;;;;;4990047;28;20241;-71
2023/01/25 02:29:33;;;;;;;2.30;2.10;;;;;;;;;;4986901;28;20224;-71
2023/01/25 02:32:00;;;;;;;4.03;2.97;;;;;;;;;;4985053;28;20220;-71
2023/01/25 02:34:27;;;;;;;2.40;2.30;;;;;;;;;;4997123;28;20263;-70
2023/01/25 02:36:54;;;;;;;2.80;2.57;;;;;;;;;;4986620;28;20264;-71
2023/01/25 02:39:24;;;;;;;1.97;1.87;;;;;;;;;;4981757;28;20260;-71
2023/01/25 02:41:51;;;;;;;3.73;2.17;;;;;;;;;;4990819;28;20225;-70
2023/01/25 02:44:21;;;;;;;1.37;1.17;;;;;;;;;;4983178;28;20218;-71
2023/01/25 02:46:48;;;;;;;2.37;2.17;;;;;;;;;;4972855;28;20218;-71
2023/01/25 02:49:16;;;;;;;6.20;2.43;;;;;;;;;;4983071;28;20216;-71
2023/01/25 02:51:44;;;;;;;1.90;1.80;;;;;;;;;;5004693;28;20606;-71
2023/01/25 02:54:12;;;;;;;2.50;2.30;;;;;;;;;;4973032;28;20315;-70
2023/01/25 02:56:40;;;;;;;2.27;2.03;;;;;;;;;;4994366;28;20237;-71
2023/01/25 02:59:07;;;;;;;2.90;1.53;;;;;;;;;;4975505;28;20245;-70
2023/01/25 03:01:36;;;;;;;2.47;2.27;;;;;;;;;;4999307;28;20571;-71
2023/01/25 03:04:04;;;;;;;0.97;0.97;;;;;;;;;;4975521;28;20650;-71
2023/01/25 03:06:31;;;;;;;1.87;1.30;;;;;;;;;;4993405;28;20208;-71
2023/01/25 03:08:58;;;;;;;1.60;1.50;;;;;;;;;;5011374;28;20715;-70
2023/01/25 03:11:25;;;;;;;2.20;2.00;;;;;;;;;;4989694;28;20236;-70
2023/01/25 03:13:52;;;;;;;2.73;2.30;;;;;;;;;;4980954;28;20226;-71
2023/01/25 03:16:19;;;;;;;2.27;2.07;;;;;;;;;;4976216;28;20218;-72
2023/01/25 03:18:48;;;;;;;2.23;2.07;;;;;;;;;;4973236;28;20242;-71
2023/01/25 03:21:16;;;;;;;4.90;2.90;;;;;;;;;;4988032;28;20213;-71
2023/01/25 03:23:44;;;;;;;2.27;1.67;;;;;;;;;;4991398;28;20212;-72
2023/01/25 03:26:12;;;;;;;4.27;2.70;;;;;;;;;;4984800;28;20215;-71
2023/01/25 03:28:40;;;;;;;2.87;2.53;;;;;;;;;;5002778;28;20217;-72
2023/01/25 03:31:08;;;;;;;3.00;2.60;;;;;;;;;;4989193;28;20288;-72
2023/01/25 03:33:35;;;;;;;2.30;1.77;;;;;;;;;;4976357;28;20198;-72
2023/01/25 03:36:04;;;;;;;2.20;1.97;;;;;;;;;;4981285;28;20212;-71
2023/01/25 03:38:31;;;;;;;2.10;1.43;;;;;;;;;;4987655;28;20277;-72
2023/01/25 03:40:58;;;;;;;4.43;2.60;;;;;;;;;;4978861;28;20617;-72
2023/01/25 03:43:25;;;;;;;2.30;2.17;;;;;;;;;;4988373;28;20201;-71
2023/01/25 03:45:53;;;;;;;6.43;3.23;;;;;;;;;;4979636;28;20231;-72
2023/01/25 03:48:20;;;;;;;2.23;2.03;;;;;;;;;;4990192;28;21748;-72
2023/01/25 03:50:49;;;;;;;3.07;2.27;;;;;;;;;;4984960;28;20233;-71
2023/01/25 03:53:26;;;;;;;4.17;2.73;;;;;;;;;;5001571;28;20247;-72
2023/01/25 03:55:53;;;;;;;1.03;0.90;;;;;;;;;;4990230;28;20225;-72
2023/01/25 03:58:20;;;;;;;3.83;2.73;;;;;;;;;;4990484;28;20747;-71
2023/01/25 04:00:47;;;;;;;2.27;1.90;;;;;;;;;;4979518;28;20209;-72
2023/01/25 04:03:14;;;;;;;2.63;2.43;;;;;;;;;;4971702;28;20213;-72
2023/01/25 04:05:41;;;;;;;2.33;2.20;;;;;;;;;;4988238;28;20255;-72
2023/01/25 04:08:08;;;;;;;2.70;2.30;;;;;;;;;;4982651;28;20639;-71
2023/01/25 04:10:37;;;;;;;3.10;2.27;;;;;;;;;;4985924;28;20234;-72
2023/01/25 04:13:04;;;;;;;3.33;2.17;;;;;;;;;;4980695;28;20214;-72
2023/01/25 04:15:31;;;;;;;2.53;2.30;;;;;;;;;;4980111;28;20584;-72
2023/01/25 04:17:58;;;;;;;0.47;0.47;;;;;;;;;;4971180;28;20215;-71
2023/01/25 04:20:25;;;;;;;4.43;3.33;;;;;;;;;;4984956;28;20197;-72
2023/01/25 04:22:52;;;;;;;4.10;3.50;;;;;;;;;;4977880;28;20222;-71
2023/01/25 04:25:19;;;;;;;2.70;2.50;;;;;;;;;;4987724;28;20672;-72
2023/01/25 04:27:48;;;;;;;3.30;3.00;;;;;;;;;;4988667;28;20213;-71
2023/01/25 04:30:15;;;;;;;1.97;1.87;;;;;;;;;;4993359;28;20220;-72
2023/01/25 04:32:42;;;;;;;2.93;2.67;;;;;;;;;;4982369;28;20209;-71
2023/01/25 04:35:09;;;;;;;2.93;2.63;;;;;;;;;;4981611;28;20584;-73
2023/01/25 04:37:36;;;;;;;5.80;1.90;;;;;;;;;;4981969;28;20216;-72
2023/01/25 04:40:03;;;;;;;2.00;1.90;;;;;;;;;;4987782;28;20348;-72
2023/01/25 04:42:30;;;;;;;4.83;3.10;;;;;;;;;;4988354;28;20299;-71
2023/01/25 04:44:59;;;;;;;1.53;1.43;;;;;;;;;;4983905;28;20216;-71
2023/01/25 04:47:26;;;;;;;3.17;2.70;;;;;;;;;;4988903;28;20208;-71
2023/01/25 04:49:53;;;;;;;2.70;2.53;;;;;;;;;;4988823;28;20688;-72
2023/01/25 04:52:20;;;;;;;2.20;2.00;;;;;;;;;;4976558;28;20222;-71
2023/01/25 04:54:47;;;;;;;2.63;2.27;;;;;;;;;;4983149;28;20842;-71
2023/01/25 04:57:14;;;;;;;2.97;2.77;;;;;;;;;;4985307;28;20232;-72
2023/01/25 04:59:41;;;;;;;2.33;2.10;;;;;;;;;;4983022;28;20213;-72
2023/01/25 05:02:10;;;;;;;1.63;1.53;;;;;;;;;;4988459;28;20205;-72
2023/01/25 05:04:37;;;;;;;2.63;2.43;;;;;;;;;;4980765;28;20218;-72
2023/01/25 05:07:04;;;;;;;4.53;3.10;;;;;;;;;;4973508;28;20912;-72
2023/01/25 05:09:31;;;;;;;5.13;3.43;;;;;;;;;;4970424;28;20213;-72
2023/01/25 05:11:58;;;;;;;2.77;2.50;;;;;;;;;;4989473;28;20705;-72
2023/01/25 05:14:25;;;;;;;3.40;3.20;;;;;;;;;;4970769;28;20214;-72
2023/01/25 05:16:52;;;;;;;3.20;2.70;;;;;;;;;;4984612;28;20209;-72
2023/01/25 05:19:20;;;;;;;2.13;1.90;;;;;;;;;;4984783;28;20751;-72
2023/01/25 05:22:00;;;;;;;2.97;2.67;;;;;;;;;;4989434;28;20275;-72
2023/01/25 05:24:27;;;;;;;5.20;3.10;;;;;;;;;;4972762;28;20221;-72
2023/01/25 05:26:59;;;;;;;3.50;2.63;;;;;;;;;;4997456;28;20216;-72
2023/01/25 05:29:26;;;;;;;2.50;2.13;;;;;;;;;;4987820;28;20320;-72
2023/01/25 05:31:54;;;;;;;2.43;2.23;;;;;;;;;;4982834;28;20645;-72
2023/01/25 05:34:22;;;;;;;2.47;2.07;;;;;;;;;;4989681;28;20212;-72
2023/01/25 05:36:49;;;;;;;5.10;2.53;;;;;;;;;;4973224;28;20213;-72
2023/01/25 05:39:17;;;;;;;3.40;2.87;;;;;;;;;;4988037;28;20223;-72
2023/01/25 05:41:44;;;;;;;3.27;2.83;;;;;;;;;;4976813;28;20212;-73
2023/01/25 05:44:11;;;;;;;3.27;2.67;;;;;;;;;;4989172;28;20205;-72
2023/01/25 05:46:38;;;;;;;4.80;2.67;;;;;;;;;;4975641;28;20222;-72
2023/01/25 05:49:06;;;;;;;4.23;2.90;;;;;;;;;;4978781;28;20215;-72
2023/01/25 05:51:35;;;;;;;4.90;2.87;;;;;;;;;;4994662;28;20243;-72
2023/01/25 05:54:02;;;;;;;1.77;1.33;;;;;;;;;;4992207;28;20240;-72
2023/01/25 05:56:29;;;;;;;4.30;3.50;;;;;;;;;;4991848;28;20225;-72
2023/01/25 05:58:57;;;;;;;3.87;3.03;;;;;;;;;;4984560;28;20224;-72
2023/01/25 06:01:24;;;;;;;3.73;2.63;;;;;;;;;;4990459;28;20311;-72
2023/01/25 06:03:51;;;;;;;6.00;3.00;;;;;;;;;;4980280;28;20208;-73
2023/01/25 06:06:19;;;;;;;3.77;3.07;;;;;;;;;;4988192;28;20214;-72
2023/01/25 06:08:48;;;;;;;4.90;3.40;;;;;;;;;;4978734;28;20606;-72
2023/01/25 06:11:16;;;;;;;7.57;4.40;;;;;;;;;;4993443;28;20229;-72
2023/01/25 06:13:43;;;;;;;5.63;4.03;;;;;;;;;;4990897;28;20770;-72
2023/01/25 06:16:11;;;;;;;3.30;2.53;;;;;;;;;;4986063;28;20211;-74
2023/01/25 06:18:38;;;;;;;3.67;2.63;;;;;;;;;;4972902;28;20241;-75
2023/01/25 06:21:06;;;;;;;2.70;1.83;;;;;;;;;;4992000;28;20209;-74
2023/01/25 06:23:33;;;;;;;2.03;1.90;;;;;;;;;;4995044;28;20216;-74
2023/01/25 06:26:02;;;;;;;2.03;1.70;;;;;;;;;;4989317;28;20205;-74
2023/01/25 06:28:30;;;;;;;4.13;2.57;;;;;;;;;;4988933;28;20218;-74
2023/01/25 06:30:57;;;;;;;3.33;2.03;;;;;;;;;;4976793;28;20324;-74
2023/01/25 06:33:24;;;;;;;2.50;2.30;;;;;;;;;;4994839;28;20219;-71
2023/01/25 06:35:51;;;;;;;2.50;2.30;;;;;;;;;;4988453;28;20871;-71
2023/01/25 06:38:18;;;;;;;3.77;2.90;;;;;;;;;;4990753;28;20221;-71
2023/01/25 06:40:45;;;;;;;2.97;2.70;;;;;;;;;;4988641;28;20210;-71
2023/01/25 06:43:13;;;;;;;2.80;2.30;;;;;;;;;;4973021;28;20269;-70
2023/01/25 06:45:40;;;;;;;3.33;2.63;;;;;;;;;;4974059;28;20213;-71
2023/01/25 06:48:08;;;;;;;2.07;1.97;;;;;;;;;;4992046;28;20224;-66
2023/01/25 06:50:35;;;;;;;2.17;2.07;;;;;;;;;;4988763;28;20205;-72
2023/01/25 06:53:02;;;;;;;5.00;2.60;;;;;;;;;;4989642;28;20264;-70
2023/01/25 06:55:29;;;;;;;2.67;2.43;;;;;;;;;;4998931;28;20219;-68
2023/01/25 06:57:56;;;;;;;4.87;2.17;;;;;;;;;;4981041;28;20635;-70
2023/01/25 07:00:24;;;;;;;3.60;2.80;;;;;;;;;;4990701;28;20220;-70
2023/01/25 07:02:51;;;;;;;4.80;2.97;;;;;;;;;;4987321;28;20200;-70
2023/01/25 07:05:18;;;;;;;1.53;1.40;;;;;;;;;;4990006;28;20213;-70
2023/01/25 07:07:46;;;;;;;5.03;2.93;;;;;;;;;;4989231;28;20216;-70
2023/01/25 07:10:13;;;;;;;2.40;1.63;;;;;;;;;;4986239;28;20209;-70
2023/01/25 07:12:40;;;;;;;5.23;3.67;;;;;;;;;;4975951;28;20320;-69
2023/01/25 07:15:08;;;;;;;4.23;2.73;;;;;;;;;;4991272;28;20543;-70
2023/01/25 07:17:36;;;;;;;3.93;3.27;;;;;;;;;;4991391;28;20217;-70
2023/01/25 07:20:03;;;;;;;2.40;2.20;;;;;;;;;;4990829;28;20323;-70
2023/01/25 07:22:30;;;;;;;4.03;2.80;;;;;;;;;;4991482;28;20220;-69
2023/01/25 07:24:57;;;;;;;11.43;7.03;;;;;;;;;;5002161;28;20226;-67
2023/01/25 07:27:24;;;;;;;6.23;4.50;;;;;;;;;;5009422;28;20302;-68
2023/01/25 07:29:52;;;;;;;4.17;3.50;;;;;;;;;;5010606;28;20267;-68
2023/01/25 07:32:19;;;;;;;6.87;3.80;;;;;;;;;;4994715;28;20235;-68
2023/01/25 07:34:47;;;;;;;3.10;2.90;;;;;;;;;;4991620;28;20216;-68
2023/01/25 07:37:14;;;;;;;2.47;1.73;;;;;;;;;;5010586;28;20590;-74
2023/01/25 07:39:46;;;;;;;5.13;2.97;;;;;;;;;;5010257;28;20271;-68
2023/01/25 07:42:14;;;;;;;6.87;2.83;;;;;;;;;;5007442;28;20211;-68
2023/01/25 07:44:41;;;;;;;3.73;2.43;;;;;;;;;;5010119;28;20205;-69
2023/01/25 07:47:08;;;;;;;4.77;3.50;;;;;;;;;;5010229;28;20229;-68
2023/01/25 07:49:35;;;;;;;3.43;2.87;;;;;;;;;;5010039;28;20671;-69
2023/01/25 07:52:03;;;;;;;4.90;3.17;;;;;;;;;;5009733;28;20913;-68
2023/01/25 07:54:30;;;;;;;5.40;2.37;;;;;;;;;;5009994;28;20209;-70
2023/01/25 07:56:57;;;;;;;4.20;2.60;;;;;;;;;;5008841;28;20235;-68
2023/01/25 07:59:25;;;;;;;4.07;2.13;;;;;;;;;;5009699;28;20299;-70
2023/01/25 08:01:52;;;;;;;3.43;2.97;;;;;;;;;;5001187;28;20735;-69
2023/01/25 08:04:19;;;;;;;4.23;2.67;;;;;;;;;;4990029;28;20220;-69
2023/01/25 08:06:46;;;;;;;8.67;3.67;;;;;;;;;;4990063;28;20209;-69
2023/01/25 08:09:18;;;;;;;3.47;3.17;;;;;;;;;;5001084;28;20665;-69
2023/01/25 08:11:45;;;;;;;2.77;2.57;;;;;;;;;;5007183;28;20228;-69
2023/01/25 08:14:13;;;;;;;4.10;2.07;;;;;;;;;;4970585;28;20245;-69
2023/01/25 08:16:40;;;;;;;4.90;2.67;;;;;;;;;;4970467;28;20237;-68
2023/01/25 08:19:08;;;;;;;5.20;2.93;;;;;;;;;;5001680;28;20240;-69
2023/01/25 08:21:35;;;;;;;5.67;3.20;;;;;;;;;;4970442;28;20254;-69
2023/01/25 08:24:04;;;;;;;4.73;2.60;;;;;;;;;;4972663;28;20218;-69
2023/01/25 08:26:33;;;;;;;3.90;3.20;;;;;;;;;;4989191;28;20202;-69
2023/01/25 08:29:00;;;;;;;4.80;2.80;;;;;;;;;;4989344;28;20214;-69
2023/01/25 08:31:28;;;;;;;5.27;3.23;;;;;;;;;;4989005;28;20288;-70
2023/01/25 08:33:55;;;;;;;5.00;2.87;;;;;;;;;;4988905;28;20205;-74
2023/01/25 08:36:23;;;;;;;5.43;3.13;;;;;;;;;;4987912;28;20205;-70
2023/01/25 08:38:54;;;;;;;4.33;3.33;;;;;;;;;;4988941;28;20284;-71
2023/01/25 08:41:21;;;;;;;3.60;2.23;;;;;;;;;;4989501;28;20235;-70
2023/01/25 08:43:51;;;;;;;3.73;2.93;;;;;;;;;;4989559;28;20214;-70
2023/01/25 08:46:18;;;;;;;5.13;3.50;;;;;;;;;;4989713;28;20291;-71
2023/01/25 08:48:46;;;;;;;4.83;3.30;;;;;;;;;;4987216;28;20232;-71
2023/01/25 08:51:13;;;;;;;3.03;2.77;;;;;;;;;;4987815;28;20262;-72
2023/01/25 08:53:40;;;;;;;3.43;2.83;;;;;;;;;;4984642;28;20222;-68
2023/01/25 08:56:08;;;;;;;7.20;3.70;;;;;;;;;;4984299;28;20238;-68
2023/01/25 08:58:35;;;;;;;8.77;3.30;;;;;;;;;;4987855;28;20210;-68
2023/01/25 09:01:04;;;;;;;4.03;2.73;;;;;;;;;;4996405;28;20991;-67
2023/01/25 09:03:31;;;;;;;5.30;2.87;;;;;;;;;;4989533;28;20209;-69
2023/01/25 09:05:58;;;;;;;3.43;2.90;;;;;;;;;;4989317;28;20838;-71
2023/01/25 09:08:26;;;;;;;4.00;2.63;;;;;;;;;;4999317;28;20209;-71
2023/01/25 09:10:53;;;;;;;5.50;2.93;;;;;;;;;;5008806;28;20232;-68
2023/01/25 09:13:20;;;;;;;8.23;4.03;;;;;;;;;;5000793;28;20245;-71
2023/01/25 09:15:47;;;;;;;5.37;2.93;;;;;;;;;;5007592;28;20213;-71
2023/01/25 09:18:15;;;;;;;4.37;3.30;;;;;;;;;;5006586;28;20319;-73
2023/01/25 09:20:42;;;;;;;7.50;3.03;;;;;;;;;;5008265;28;20227;-71
2023/01/25 09:23:09;;;;;;;8.60;3.33;;;;;;;;;;5007093;28;20588;-72
2023/01/25 09:25:36;;;;;;;3.40;2.67;;;;;;;;;;4970448;28;20202;-72
2023/01/25 09:28:10;;;;;;;4.47;2.93;;;;;;;;;;4969847;28;20207;-70
2023/01/25 09:30:37;;;;;;;4.43;4.00;;;;;;;;;;4972836;28;20228;-70
2023/01/25 09:33:04;;;;;;;4.93;3.43;;;;;;;;;;4982142;28;20240;-70
2023/01/25 09:35:34;;;;;;;5.33;3.73;;;;;;;;;;4988291;28;20692;-76
2023/01/25 09:38:02;;;;;;;2.50;2.23;;;;;;;;;;4986683;28;20241;-71
2023/01/25 09:40:33;;;;;;;3.27;2.87;;;;;;;;;;4978843;28;20213;-71
2023/01/25 09:43:01;;;;;;;5.47;3.20;;;;;;;;;;4985693;28;20209;-71
2023/01/25 09:45:31;;;;;;;3.90;2.57;;;;;;;;;;4986852;28;20241;-71
2023/01/25 09:48:00;;;;;;;6.50;3.67;;;;;;;;;;4992369;28;20299;-71
2023/01/25 09:50:41;;;;;;;6.43;3.00;;;;;;;;;;5008289;28;20209;-71
2023/01/25 09:53:17;;;;;;;4.63;2.30;;;;;;;;;;5000809;28;20611;-70
2023/01/25 09:55:45;;;;;;;3.83;3.17;;;;;;;;;;4988389;28;20275;-70
2023/01/25 09:58:14;;;;;;;5.50;3.13;;;;;;;;;;4988512;28;20217;-69
2023/01/25 10:00:43;;;;;;;3.30;2.73;;;;;;;;;;4988160;28;20209;-69
2023/01/25 10:03:15;;;;;;;5.90;3.60;;;;;;;;;;4988509;28;20645;-69
2023/01/25 10:05:46;;;;;;;4.43;3.13;;;;;;;;;;4988563;28;20216;-69
2023/01/25 10:08:18;;;;;;;5.43;2.97;;;;;;;;;;4988206;28;20224;-69
2023/01/25 10:10:47;;;;;;;5.27;3.53;;;;;;;;;;5006479;28;20220;-69
2023/01/25 10:13:15;;;;;;;5.33;2.63;;;;;;;;;;5007966;28;20271;-69
2023/01/25 10:15:44;;;;;;;6.03;3.87;;;;;;;;;;5007933;28;20212;-69
2023/01/25 10:18:18;;;;;;;5.50;2.93;;;;;;;;;;5007850;28;20683;-69
2023/01/25 10:20:48;;;;;;;6.37;3.10;;;;;;;;;;5007774;28;20213;-69
2023/01/25 10:23:40;;;;;;;4.67;3.47;;;;;;;;;;5006520;28;20347;-70
2023/01/25 10:26:11;;;;;;;2.67;2.47;;;;;;;;;;5007397;28;20220;-69
2023/01/25 10:28:41;;;;;;;5.00;2.70;;;;;;;;;;4988718;28;20217;-71
2023/01/25 10:31:16;;;;;;;6.90;3.83;;;;;;;;;;5006101;28;20217;-72
2023/01/25 10:33:44;;;;;;;5.10;3.13;;;;;;;;;;5007932;28;20236;-70
2023/01/25 10:36:15;;;;;;;6.83;3.63;;;;;;;;;;4993052;28;20233;-69
2023/01/25 10:38:44;;;;;;;4.77;3.10;;;;;;;;;;4987285;28;20300;-72
2023/01/25 10:41:12;;;;;;;5.23;2.90;;;;;;;;;;4991216;28;20208;-70
2023/01/25 10:43:39;;;;;;;5.23;3.47;;;;;;;;;;4991645;28;20218;-69
2023/01/25 10:46:17;;;;;;;5.03;3.60;;;;;;;;;;4991926;28;20216;-69
2023/01/25 10:48:44;;;;;;;3.93;3.30;;;;;;;;;;4991695;28;20633;-70
2023/01/25 10:51:28;;;;;;;5.23;3.83;;;;;;;;;;4989102;28;20211;-65
2023/01/25 10:54:01;;;;;;;5.73;3.87;;;;;;;;;;4982519;28;20236;-68
2023/01/25 10:56:29;;;;;;;7.33;3.73;;;;;;;;;;4980586;28;20246;-70
2023/01/25 10:59:06;;;;;;;6.10;3.97;;;;;;;;;;4997499;28;20221;-71
2023/01/25 11:01:34;;;;;;;6.70;4.53;;;;;;;;;;4991873;28;20213;-72
2023/01/25 11:04:02;;;;;;;6.13;3.83;;;;;;;;;;4991814;28;20206;-69
2023/01/25 11:06:30;;;;;;;6.50;3.33;;;;;;;;;;4990878;28;20707;-68
2023/01/25 11:08:57;;;;;;;8.43;4.20;;;;;;;;;;4991154;28;20220;-68
2023/01/25 11:11:27;;;;;;;7.70;4.30;;;;;;;;;;4991209;28;20565;-69
2023/01/25 11:13:54;;;;;;;6.33;4.00;;;;;;;;;;4990002;28;20244;-69
2023/01/25 11:16:32;;;;;;;6.03;3.77;;;;;;;;;;4991370;28;20206;-69
2023/01/25 11:19:01;;;;;;;6.57;4.50;;;;;;;;;;4991159;28;20241;-71
2023/01/25 11:21:29;;;;;;;4.40;3.40;;;;;;;;;;4991318;28;20210;-71
2023/01/25 11:24:00;;;;;;;3.37;2.97;;;;;;;;;;4992920;28;20206;-71
2023/01/25 11:26:29;;;;;;;7.43;3.40;;;;;;;;;;4988243;28;20221;-72
2023/01/25 11:29:07;;;;;;;5.10;3.60;;;;;;;;;;4985632;28;20257;-72
2023/01/25 11:31:34;;;;;;;8.43;4.40;;;;;;;;;;4982177;28;20296;-72
2023/01/25 11:34:01;;;;;;;4.27;3.73;;;;;;;;;;4988542;28;20374;-66
2023/01/25 11:36:32;;;;;;;4.97;4.03;;;;;;;;;;4988754;28;20562;-69
2023/01/25 11:39:11;;;;;;;7.03;4.70;;;;;;;;;;4989088;28;20213;-69
2023/01/25 11:41:43;;;;;;;9.07;4.70;;;;;;;;;;4983700;28;20216;-74
2023/01/25 11:44:19;;;;;;;5.73;4.03;;;;;;;;;;4976818;28;20213;-70
2023/01/25 11:46:51;;;;;;;6.80;3.07;;;;;;;;;;4987602;28;20201;-73
2023/01/25 11:49:22;;;;;;;2.63;2.40;;;;;;;;;;4988431;28;20283;-73
2023/01/25 11:51:54;;;;;;;5.13;3.63;;;;;;;;;;4986898;28;20206;-73
2023/01/25 11:54:29;;;;;;;6.27;3.23;;;;;;;;;;4976986;28;20627;-72
2023/01/25 11:57:00;;;;;;;2.50;2.30;;;;;;;;;;4989264;28;20324;-70
2023/01/25 11:59:33;;;;;;;6.20;4.03;;;;;;;;;;4988348;28;20213;-75
2023/01/25 12:02:08;;;;;;;6.83;4.27;;;;;;;;;;4987296;28;20212;-75
2023/01/25 12:04:51;;;;;;;4.23;3.87;;;;;;;;;;4988240;28;20204;-74
2023/01/25 12:07:22;;;;;;;8.70;5.13;;;;;;;;;;4984463;28;20206;-71
2023/01/25 12:09:55;;;;;;;8.27;3.57;;;;;;;;;;4970732;28;20259;-69
2023/01/25 12:12:31;;;;;;;4.17;2.97;;;;;;;;;;4977121;28;20214;-70
2023/01/25 12:15:06;;;;;;;4.90;3.70;;;;;;;;;;4989375;28;20214;-71
2023/01/25 12:17:39;;;;;;;4.60;3.27;;;;;;;;;;4987139;28;20225;-69
2023/01/25 12:20:11;;;;;;;5.77;3.40;;;;;;;;;;5001530;28;20299;-69
2023/01/25 12:22:49;;;;;;;11.20;4.03;;;;;;;;;;4998002;28;20225;-69
2023/01/25 12:25:20;;;;;;;11.80;5.27;;;;;;;;;;5003787;28;20567;-69
2023/01/25 12:27:54;;;;;;;7.23;4.27;;;;;;;;;;5008663;28;20219;-67
2023/01/25 12:30:25;;;;;;;6.70;3.23;;;;;;;;;;5007355;28;20210;-67
2023/01/25 12:32:55;;;;;;;6.53;3.53;;;;;;;;;;4996130;28;20230;-70
2023/01/25 12:35:26;;;;;;;4.07;3.57;;;;;;;;;;4989718;28;20217;-70
2023/01/25 12:37:55;;;;;;;7.33;4.20;;;;;;;;;;4987904;28;20274;-68
2023/01/25 12:40:26;;;;;;;7.80;3.47;;;;;;;;;;4995081;28;20222;-68
2023/01/25 12:42:57;;;;;;;2.37;2.17;;;;;;;;;;5009150;28;20220;-69
2023/01/25 12:45:28;;;;;;;5.57;2.50;;;;;;;;;;5000818;28;20224;-69
2023/01/25 12:47:57;;;;;;;5.07;4.00;;;;;;;;;;4987226;28;20320;-70
2023/01/25 12:50:28;;;;;;;6.67;4.40;;;;;;;;;;4988962;28;20217;-73
2023/01/25 12:52:58;;;;;;;7.30;4.13;;;;;;;;;;4988338;28;20302;-69
2023/01/25 12:55:26;;;;;;;9.57;4.40;;;;;;;;;;4990896;28;20920;-69
2023/01/25 12:57:58;;;;;;;7.70;3.67;;;;;;;;;;4988972;28;20244;-68
2023/01/25 13:00:30;;;;;;;6.50;4.73;;;;;;;;;;4991262;28;20213;-69
2023/01/25 13:03:04;;;;;;;3.40;2.43;;;;;;;;;;4994713;28;20630;-68
2023/01/25 13:05:36;;;;;;;3.87;3.10;;;;;;;;;;4986942;28;20643;-69
2023/01/25 13:08:07;;;;;;;7.43;3.50;;;;;;;;;;4988423;28;20626;-68
2023/01/25 13:10:35;;;;;;;6.63;3.40;;;;;;;;;;4993949;28;20220;-68
2023/01/25 13:13:18;;;;;;;7.43;4.43;;;;;;;;;;4989396;28;20730;-70
2023/01/25 13:15:46;;;;;;;5.80;4.30;;;;;;;;;;4988919;28;20275;-69
2023/01/25 13:18:28;;;;;;;6.37;3.83;;;;;;;;;;4989452;28;20212;-68
2023/01/25 13:20:56;;;;;;;6.57;3.30;;;;;;;;;;4988984;28;20205;-69
2023/01/25 13:23:31;;;;;;;5.07;3.70;;;;;;;;;;4988156;28;20564;-68
2023/01/25 13:26:13;;;;;;;6.50;4.00;;;;;;;;;;4988796;28;20722;-66
2023/01/25 13:28:45;;;;;;;5.77;4.20;;;;;;;;;;4988311;28;20586;-66
2023/01/25 13:31:37;;;;;;;7.17;3.17;;;;;;;;;;4989382;28;20217;-66
2023/01/25 13:34:09;;;;;;;5.77;3.40;;;;;;;;;;4989103;28;20240;-66
2023/01/25 13:36:45;;;;;;;5.50;3.70;;;;;;;;;;4987233;28;20220;-67
2023/01/25 13:39:31;;;;;;;5.27;4.07;;;;;;;;;;4991334;28;20777;-68
2023/01/25 13:41:59;;;;;;;6.70;3.20;;;;;;;;;;4990130;28;20586;-68
2023/01/25 13:44:28;;;;;;;5.20;4.10;;;;;;;;;;4984180;28;20236;-68
2023/01/25 13:46:55;;;;;;;6.77;3.97;;;;;;;;;;4988530;28;20210;-68
2023/01/25 13:49:27;;;;;;;6.10;3.63;;;;;;;;;;4987991;28;20216;-67
2023/01/25 13:51:54;;;;;;;4.73;3.47;;;;;;;;;;4988583;28;20210;-68
2023/01/25 13:54:21;;;;;;;7.07;4.53;;;;;;;;;;4986866;28;20232;-67
2023/01/25 13:56:48;;;;;;;4.57;3.47;;;;;;;;;;4996430;28;20237;-69
2023/01/25 13:59:25;;;;;;;10.27;3.47;;;;;;;;;;4988566;28;20210;-65
2023/01/25 14:01:52;;;;;;;4.67;4.17;;;;;;;;;;5007563;28;20208;-64
2023/01/25 14:04:19;;;;;;;7.50;4.07;;;;;;;;;;4996238;28;20207;-64
2023/01/25 14:06:48;;;;;;;5.10;3.90;;;;;;;;;;4983093;28;20209;-65
2023/01/25 14:09:18;;;;;;;9.20;3.43;;;;;;;;;;4987968;28;20209;-65
2023/01/25 14:11:46;;;;;;;6.57;3.60;;;;;;;;;;4993829;28;20216;-64
2023/01/25 14:14:21;;;;;;;6.07;4.13;;;;;;;;;;4989951;28;20619;-64
2023/01/25 14:17:01;;;;;;;6.53;4.33;;;;;;;;;;4989943;28;20694;-65
2023/01/25 14:19:29;;;;;;;8.90;4.83;;;;;;;;;;4972378;28;20865;-65
2023/01/25 14:22:20;;;;;;;5.30;3.57;;;;;;;;;;4976572;28;20214;-65
2023/01/25 14:25:01;;;;;;;6.27;4.00;;;;;;;;;;4985958;28;20272;-65
2023/01/25 14:27:28;;;;;;;5.43;3.37;;;;;;;;;;4989143;28;20217;-65
2023/01/25 14:29:55;;;;;;;10.53;5.00;;;;;;;;;;4990280;28;20320;-64
2023/01/25 14:32:23;;;;;;;6.70;4.23;;;;;;;;;;4992241;28;20969;-65
2023/01/25 14:34:50;;;;;;;11.23;5.03;;;;;;;;;;4991961;28;20298;-64
2023/01/25 14:37:19;;;;;;;1.37;1.37;;;;;;;;;;4990032;28;20214;-65
2023/01/25 14:39:48;;;;;;;8.07;4.07;;;;;;;;;;4986110;28;20223;-65
2023/01/25 14:42:16;;;;;;;9.70;4.10;;;;;;;;;;4991030;28;20224;-65
2023/01/25 14:44:43;;;;;;;6.37;4.80;;;;;;;;;;4991228;28;20214;-65
2023/01/25 14:47:23;;;;;;;6.57;4.07;;;;;;;;;;4991403;28;20658;-64
2023/01/25 14:49:50;;;;;;;7.40;5.27;;;;;;;;;;4991450;28;20244;-65
2023/01/25 14:52:19;;;;;;;8.37;4.93;;;;;;;;;;4991259;28;20228;-65
2023/01/25 14:54:49;;;;;;;4.30;3.57;;;;;;;;;;4991200;28;20353;-64